Huaiyin, China
Current Conditions -  °F | °C
As of 3:00 AM on Saturday 22 Nov 2014 (Local Time) from ZSNJ Reporting Station
Haze Haze  
Wind Chill: 54°   Ceiling: Unl
Heat Index: 54°   Visibility: 0.68mi
Dew Point: 52°   Wind: 2mph
Humidity: 94%   Direction: 130°SE
Pressure: 30.12"   Gusts: NA
Location:  33.6°N, 119.02°E
Report Text: ZSNJ 211900Z 13001MPS 1100 R24/1100VP2000D R25/P2000 BRNSC12/11 Q1020 NOSIG
Loading
Personal Weather Stations






























Interactive Weather Map New forecast layout! Learn more

10-Day Weather Forecast

Advertisements
Track Severe Weather on mobile